createdAt,value
2016-10-13T00:00:07.795Z,93.57
2016-10-13T00:01:07.464Z,93.69
2016-10-13T00:02:08.177Z,93.96
2016-10-13T00:03:07.803Z,93.91
2016-10-13T00:04:07.529Z,93.82
2016-10-13T00:05:08.176Z,94.00
2016-10-13T00:06:07.805Z,93.15
2016-10-13T00:07:07.563Z,92.75
2016-10-13T00:08:08.168Z,92.52
2016-10-13T00:09:07.801Z,92.47
2016-10-13T00:10:07.473Z,92.74
2016-10-13T00:11:08.112Z,92.32
2016-10-13T00:12:07.789Z,92.49
2016-10-13T00:13:07.409Z,92.78
2016-10-13T00:14:08.194Z,91.95
2016-10-13T00:15:07.756Z,92.01
2016-10-13T00:16:08.382Z,91.83
2016-10-13T00:17:08.120Z,92.15
2016-10-13T00:18:07.785Z,92.33
2016-10-13T00:19:07.465Z,92.36
2016-10-13T00:20:08.114Z,92.30
2016-10-13T00:21:07.760Z,92.53
2016-10-13T00:22:07.434Z,92.49
2016-10-13T00:23:08.024Z,92.79
2016-10-13T00:24:07.680Z,92.12
2016-10-13T00:25:08.343Z,92.15
2016-10-13T00:26:08.047Z,91.75
2016-10-13T00:27:07.695Z,91.67
2016-10-13T00:28:08.345Z,92.20
2016-10-13T00:29:08.026Z,92.58
2016-10-13T00:30:07.690Z,92.33
2016-10-13T00:31:08.336Z,92.46
2016-10-13T00:32:07.993Z,92.95
2016-10-13T00:33:07.639Z,93.13
2016-10-13T00:34:08.273Z,93.68
2016-10-13T00:35:07.916Z,93.67
2016-10-13T00:36:07.559Z,92.91
2016-10-13T00:37:08.277Z,93.14
2016-10-13T00:38:07.880Z,92.83
2016-10-13T00:39:07.529Z,92.71
2016-10-13T00:40:08.155Z,92.64
2016-10-13T00:41:07.809Z,92.55
2016-10-13T00:42:07.537Z,92.51
2016-10-13T00:43:08.102Z,92.61
2016-10-13T00:44:07.760Z,92.89
2016-10-13T00:45:07.420Z,92.49
2016-10-13T00:46:08.096Z,92.70
2016-10-13T00:47:07.824Z,92.71
2016-10-13T00:48:07.402Z,92.70
2016-10-13T00:49:08.082Z,92.77
2016-10-13T00:50:07.743Z,92.56
2016-10-13T00:51:07.396Z,92.64
2016-10-13T00:52:08.117Z,92.31
2016-10-13T00:53:07.776Z,91.96
2016-10-13T00:54:07.433Z,92.09
2016-10-13T00:55:08.079Z,91.84
2016-10-13T00:56:07.749Z,92.03
2016-10-13T00:57:08.395Z,91.90
2016-10-13T00:58:08.023Z,91.92
2016-10-13T00:59:07.689Z,92.00
2016-10-13T01:00:08.345Z,91.96
2016-10-13T01:01:07.945Z,91.74
2016-10-13T01:02:07.672Z,91.72
2016-10-13T01:03:08.380Z,91.64
2016-10-13T01:04:07.914Z,91.12
2016-10-13T01:05:07.562Z,90.82
2016-10-13T01:06:08.189Z,90.26
2016-10-13T01:07:07.870Z,90.05
2016-10-13T01:08:07.500Z,89.89
2016-10-13T01:09:08.127Z,89.97
2016-10-13T01:10:07.764Z,89.98
2016-10-13T01:11:07.417Z,90.36
2016-10-13T01:12:08.093Z,90.74
2016-10-13T01:13:07.703Z,91.04
2016-10-13T01:14:08.518Z,91.16
2016-10-13T01:15:08.013Z,91.58
2016-10-13T01:16:07.664Z,91.34
2016-10-13T01:17:08.497Z,91.19
2016-10-13T01:18:08.191Z,91.23
2016-10-13T01:19:07.835Z,91.26
2016-10-13T01:20:07.502Z,91.78
2016-10-13T01:21:08.196Z,91.85
2016-10-13T01:22:07.846Z,91.44
2016-10-13T01:23:07.463Z,90.98
2016-10-13T01:24:08.108Z,91.30
2016-10-13T01:25:07.693Z,91.39
2016-10-13T01:26:08.369Z,90.87
2016-10-13T01:27:08.015Z,90.91
2016-10-13T01:28:07.724Z,91.06
2016-10-13T01:29:08.353Z,91.13
2016-10-13T01:30:08.023Z,91.21
2016-10-13T01:31:07.614Z,91.16
2016-10-13T01:32:08.310Z,91.38
2016-10-13T01:33:07.982Z,91.29
2016-10-13T01:34:07.582Z,91.17
2016-10-13T01:35:08.181Z,91.25
2016-10-13T01:36:07.811Z,91.00
2016-10-13T01:37:07.528Z,91.17
2016-10-13T01:38:08.217Z,91.46
2016-10-13T01:39:07.835Z,91.29
2016-10-13T01:40:07.408Z,91.46
2016-10-13T01:41:08.115Z,92.14
2016-10-13T01:42:07.720Z,91.93
2016-10-13T01:43:07.448Z,92.28
2016-10-13T01:44:08.071Z,91.86
2016-10-13T01:45:07.717Z,91.52
2016-10-13T01:46:07.343Z,91.52
2016-10-13T01:47:08.032Z,91.49
2016-10-13T01:48:07.734Z,91.23
2016-10-13T01:49:08.333Z,90.86
2016-10-13T01:50:07.965Z,90.33
2016-10-13T01:51:07.673Z,90.06
2016-10-13T01:52:08.361Z,90.05
2016-10-13T01:53:08.044Z,90.20
2016-10-13T01:54:07.600Z,90.42
2016-10-13T01:55:08.271Z,90.64
2016-10-13T01:56:07.912Z,91.21
2016-10-13T01:57:07.558Z,91.32
2016-10-13T01:58:08.242Z,92.04
2016-10-13T01:59:07.819Z,92.06
2016-10-13T02:00:07.472Z,91.89
2016-10-13T02:01:08.109Z,92.24
2016-10-13T02:02:07.798Z,91.75
2016-10-13T02:03:07.499Z,91.56
2016-10-13T02:04:08.097Z,91.98
2016-10-13T02:05:07.730Z,91.49
2016-10-13T02:06:07.399Z,90.48
2016-10-13T02:07:08.087Z,90.53
2016-10-13T02:08:07.719Z,91.21
2016-10-13T02:09:08.317Z,91.59
2016-10-13T02:10:07.931Z,91.48
2016-10-13T02:11:07.588Z,91.78
2016-10-13T02:12:08.207Z,91.77
2016-10-13T02:13:07.850Z,92.26
2016-10-13T02:14:07.536Z,92.89
2016-10-13T02:15:08.202Z,92.56
2016-10-13T02:16:07.801Z,92.53
2016-10-13T02:17:13.099Z,92.33
2016-10-13T02:18:08.372Z,92.36
2016-10-13T02:19:07.979Z,92.71
2016-10-13T02:20:07.597Z,92.73
2016-10-13T02:21:08.291Z,92.81
2016-10-13T02:22:08.020Z,92.56
2016-10-13T02:23:07.632Z,92.79
2016-10-13T02:24:08.211Z,92.54
2016-10-13T02:25:07.879Z,92.71
2016-10-13T02:26:13.003Z,92.56
2016-10-13T02:27:08.152Z,92.95
2016-10-13T02:28:07.810Z,93.19
2016-10-13T02:29:07.371Z,93.00
2016-10-13T02:30:08.031Z,92.81
2016-10-13T02:31:07.683Z,92.79
2016-10-13T02:32:08.326Z,92.84
2016-10-13T02:33:08.045Z,92.23
2016-10-13T02:34:07.670Z,92.07
2016-10-13T02:35:08.310Z,92.46
2016-10-13T02:36:07.957Z,92.58
2016-10-13T02:37:07.623Z,92.65
2016-10-13T02:38:08.284Z,92.23
2016-10-13T02:39:07.880Z,92.74
2016-10-13T02:40:07.497Z,93.17
2016-10-13T02:41:08.156Z,93.27
2016-10-13T02:42:07.820Z,93.15
2016-10-13T02:43:07.535Z,94.10
2016-10-13T02:44:08.152Z,94.00
2016-10-13T02:45:07.780Z,94.37
2016-10-13T02:46:07.458Z,94.57
2016-10-13T02:47:08.187Z,94.19
2016-10-13T02:48:07.808Z,94.24
2016-10-13T02:49:07.407Z,94.89
2016-10-13T02:50:13.588Z,94.94
2016-10-13T02:51:07.700Z,95.01
2016-10-13T02:52:08.421Z,94.91
2016-10-13T02:53:08.044Z,94.48
2016-10-13T02:54:07.720Z,94.67
2016-10-13T02:55:08.311Z,94.00
2016-10-13T02:56:07.973Z,94.73
2016-10-13T02:57:07.644Z,94.43
2016-10-13T02:58:08.359Z,94.90
2016-10-13T02:59:07.940Z,94.60
2016-10-13T03:00:07.642Z,94.11
2016-10-13T03:01:08.262Z,94.45
2016-10-13T03:02:07.891Z,94.50
2016-10-13T03:03:07.629Z,94.57
2016-10-13T03:04:08.227Z,94.62
2016-10-13T03:05:07.871Z,95.67
2016-10-13T03:06:07.501Z,95.35
2016-10-13T03:07:08.266Z,95.00
2016-10-13T03:08:07.920Z,94.98
2016-10-13T03:09:07.500Z,95.05
2016-10-13T03:10:08.154Z,94.92
2016-10-13T03:11:07.807Z,94.68
2016-10-13T03:12:07.441Z,95.50
2016-10-13T03:13:08.110Z,95.16
2016-10-13T03:14:07.737Z,94.72
2016-10-13T03:15:08.367Z,94.84
2016-10-13T03:16:08.051Z,94.69
2016-10-13T03:17:07.711Z,94.46
2016-10-13T03:18:07.524Z,94.69
2016-10-13T03:19:08.097Z,94.52
2016-10-13T03:20:07.766Z,94.91
2016-10-13T03:21:07.373Z,94.90
2016-10-13T03:22:08.101Z,94.87
2016-10-13T03:23:07.788Z,94.40
2016-10-13T03:24:08.316Z,94.19
2016-10-13T03:25:07.942Z,94.74
2016-10-13T03:26:07.624Z,95.48
2016-10-13T03:27:08.289Z,95.66
2016-10-13T03:28:07.963Z,95.65
2016-10-13T03:29:07.568Z,95.55
2016-10-13T03:30:08.259Z,95.18
2016-10-13T03:31:07.882Z,95.25
2016-10-13T03:32:07.600Z,95.21
2016-10-13T03:33:08.180Z,95.27
2016-10-13T03:34:07.747Z,95.44
2016-10-13T03:35:07.413Z,95.11
2016-10-13T03:36:08.051Z,94.16
2016-10-13T03:37:07.828Z,93.85
2016-10-13T03:38:08.417Z,94.04
2016-10-13T03:39:07.989Z,93.98
2016-10-13T03:40:07.664Z,94.36
2016-10-13T03:41:08.334Z,94.65
2016-10-13T03:42:07.978Z,94.50
2016-10-13T03:43:07.747Z,94.52
2016-10-13T03:44:08.339Z,94.39
2016-10-13T03:45:07.996Z,94.37
2016-10-13T03:46:07.651Z,94.98
2016-10-13T03:47:08.295Z,94.73
2016-10-13T03:48:08.026Z,94.60
2016-10-13T03:49:07.619Z,94.25
2016-10-13T03:50:08.306Z,94.06
2016-10-13T03:51:07.949Z,93.41
2016-10-13T03:52:07.662Z,94.35
2016-10-13T03:53:08.299Z,94.48
2016-10-13T03:54:07.896Z,94.49
2016-10-13T03:55:07.516Z,94.69
2016-10-13T03:56:08.172Z,94.36
2016-10-13T03:57:07.821Z,94.24
2016-10-13T03:58:07.489Z,94.34
2016-10-13T03:59:08.106Z,94.69
2016-10-13T04:00:07.762Z,95.14
2016-10-13T04:01:07.381Z,94.53
2016-10-13T04:02:08.070Z,94.19
2016-10-13T04:03:07.792Z,94.15
2016-10-13T04:04:07.370Z,94.47
2016-10-13T04:05:08.009Z,94.64
2016-10-13T04:06:07.692Z,94.53
2016-10-13T04:07:08.378Z,94.51
2016-10-13T04:08:08.032Z,94.97
2016-10-13T04:09:07.628Z,94.29
2016-10-13T04:10:08.301Z,94.45
2016-10-13T04:11:13.499Z,94.44
2016-10-13T04:12:07.618Z,94.26
2016-10-13T04:13:08.299Z,93.95
2016-10-13T04:14:07.936Z,93.73
2016-10-13T04:15:07.545Z,93.75
2016-10-13T04:16:08.248Z,93.64
2016-10-13T04:17:08.019Z,94.16
2016-10-13T04:18:07.740Z,94.44
2016-10-13T04:19:07.381Z,94.32
2016-10-13T04:20:08.034Z,93.61
2016-10-13T04:21:07.687Z,93.93
2016-10-13T04:22:08.383Z,94.18
2016-10-13T04:23:08.031Z,94.28
2016-10-13T04:24:07.653Z,93.81
2016-10-13T04:25:10.967Z,94.32
2016-10-13T04:26:07.673Z,94.09
2016-10-13T04:27:08.345Z,93.60
2016-10-13T04:28:08.068Z,93.54
2016-10-13T04:29:07.661Z,93.90
2016-10-13T04:30:08.329Z,93.99
2016-10-13T04:31:08.003Z,93.76
2016-10-13T04:32:07.689Z,94.11
2016-10-13T04:33:08.436Z,95.16
2016-10-13T04:34:08.058Z,94.98
2016-10-13T04:35:07.705Z,94.28
2016-10-13T04:36:08.323Z,93.89
2016-10-13T04:37:07.977Z,94.22
2016-10-13T04:38:07.639Z,94.22
2016-10-13T04:39:08.313Z,94.42
2016-10-13T04:40:07.862Z,94.03
2016-10-13T04:41:07.532Z,93.83
2016-10-13T04:42:08.233Z,94.10
2016-10-13T04:43:07.940Z,94.01
2016-10-13T04:44:07.591Z,94.07
2016-10-13T04:45:08.228Z,94.14
2016-10-13T04:46:07.866Z,94.24
2016-10-13T04:47:07.590Z,94.85
2016-10-13T04:48:08.257Z,94.22
2016-10-13T04:49:07.870Z,93.69
2016-10-13T04:50:07.583Z,92.90
2016-10-13T04:51:08.231Z,92.68
2016-10-13T04:52:07.867Z,92.56
2016-10-13T04:53:07.480Z,92.58
2016-10-13T04:54:08.173Z,92.95
2016-10-13T04:55:07.766Z,93.21
2016-10-13T04:56:07.411Z,93.14
2016-10-13T04:57:08.111Z,93.20
2016-10-13T04:58:07.799Z,93.44
2016-10-13T04:59:07.403Z,93.26
2016-10-13T05:00:08.044Z,93.37
2016-10-13T05:01:07.670Z,93.92
2016-10-13T05:02:08.341Z,93.77
2016-10-13T05:03:08.053Z,94.07
2016-10-13T05:04:07.687Z,94.38
2016-10-13T05:05:08.324Z,93.41
2016-10-13T05:06:07.992Z,93.90
2016-10-13T05:07:07.735Z,93.42
2016-10-13T05:08:08.363Z,93.19
2016-10-13T05:09:07.953Z,93.70
2016-10-13T05:10:07.613Z,93.15
2016-10-13T05:11:08.265Z,92.97
2016-10-13T05:12:07.930Z,93.49
2016-10-13T05:13:07.627Z,93.07
2016-10-13T05:14:08.229Z,92.80
2016-10-13T05:15:07.887Z,92.80
2016-10-13T05:16:07.570Z,92.85
2016-10-13T05:17:08.259Z,92.52
2016-10-13T05:18:08.051Z,92.97
2016-10-13T05:19:07.638Z,92.67
2016-10-13T05:20:08.288Z,92.29
2016-10-13T05:21:08.003Z,92.92
2016-10-13T05:22:07.641Z,92.79
2016-10-13T05:23:08.309Z,92.76
2016-10-13T05:24:07.945Z,93.12
2016-10-13T05:25:13.098Z,92.59
2016-10-13T05:26:08.189Z,92.92
2016-10-13T05:27:07.804Z,94.13
2016-10-13T05:28:07.479Z,93.85
2016-10-13T05:29:08.133Z,93.76
2016-10-13T05:30:07.764Z,93.22
2016-10-13T05:31:07.400Z,93.39
2016-10-13T05:32:08.098Z,93.92
2016-10-13T05:33:07.828Z,93.53
2016-10-13T05:34:07.369Z,93.53
2016-10-13T05:35:08.039Z,92.94
2016-10-13T05:36:07.695Z,92.80
2016-10-13T05:37:08.387Z,92.47
2016-10-13T05:38:08.025Z,92.53
2016-10-13T05:39:07.629Z,93.35
2016-10-13T05:40:08.336Z,92.86
2016-10-13T05:41:07.953Z,92.85
2016-10-13T05:42:07.548Z,93.20
2016-10-13T05:43:08.330Z,93.09
2016-10-13T05:44:08.041Z,93.17
2016-10-13T05:45:07.569Z,92.64
2016-10-13T05:46:08.200Z,94.84
2016-10-13T05:47:07.873Z,94.40
2016-10-13T05:48:07.546Z,94.24
2016-10-13T05:49:08.210Z,93.90
2016-10-13T05:50:07.873Z,93.88
2016-10-13T05:51:07.548Z,94.93
2016-10-13T05:52:08.225Z,94.96
2016-10-13T05:53:07.868Z,94.62
2016-10-13T05:54:07.434Z,94.45
2016-10-13T05:55:08.166Z,94.25
2016-10-13T05:56:07.835Z,94.61
2016-10-13T05:57:07.472Z,94.14
2016-10-13T05:58:08.231Z,94.10
2016-10-13T05:59:07.782Z,94.35
2016-10-13T06:00:07.490Z,93.42
2016-10-13T06:01:08.099Z,93.68
2016-10-13T06:02:07.756Z,94.26
2016-10-13T06:03:07.474Z,94.08
2016-10-13T06:04:08.056Z,94.13
2016-10-13T06:05:07.694Z,93.88
2016-10-13T06:06:08.334Z,93.91
2016-10-13T06:07:08.033Z,93.02
2016-10-13T06:08:07.716Z,93.47
2016-10-13T06:09:08.323Z,93.70
2016-10-13T06:10:07.985Z,93.08
2016-10-13T06:11:07.582Z,92.97
2016-10-13T06:12:08.280Z,92.52
2016-10-13T06:13:09.465Z,92.81
2016-10-13T06:14:07.565Z,93.08
2016-10-13T06:15:08.227Z,92.88
2016-10-13T06:16:07.847Z,92.99
2016-10-13T06:17:07.591Z,93.22
2016-10-13T06:18:08.332Z,92.93
2016-10-13T06:19:07.928Z,93.13
2016-10-13T06:20:07.588Z,93.10
2016-10-13T06:21:08.222Z,93.03
2016-10-13T06:22:08.018Z,93.74
2016-10-13T06:23:07.660Z,93.48
2016-10-13T06:24:08.246Z,93.14
2016-10-13T06:25:07.908Z,92.85
2016-10-13T06:26:07.499Z,93.02
2016-10-13T06:27:08.236Z,92.68
2016-10-13T06:28:07.883Z,92.69
2016-10-13T06:29:07.471Z,92.71
2016-10-13T06:30:08.141Z,93.48
2016-10-13T06:31:07.809Z,93.21
2016-10-13T06:32:07.415Z,92.84
2016-10-13T06:33:08.185Z,93.33
2016-10-13T06:34:07.774Z,93.21
2016-10-13T06:35:07.387Z,92.89
2016-10-13T06:36:08.088Z,92.00
2016-10-13T06:37:07.783Z,92.66
2016-10-13T06:38:07.376Z,92.29
2016-10-13T06:39:08.034Z,92.56
2016-10-13T06:40:07.701Z,92.55
2016-10-13T06:41:08.342Z,91.21
2016-10-13T06:42:08.020Z,90.44
2016-10-13T06:43:07.705Z,92.46
2016-10-13T06:44:08.290Z,91.94
2016-10-13T06:45:07.934Z,91.64
2016-10-13T06:46:07.624Z,90.82
2016-10-13T06:47:13.805Z,90.79
2016-10-13T06:48:07.991Z,90.65
2016-10-13T06:49:07.536Z,91.11
2016-10-13T06:50:08.253Z,90.73
2016-10-13T06:51:07.862Z,90.71
2016-10-13T06:52:07.535Z,90.60
2016-10-13T06:53:08.167Z,90.54
2016-10-13T06:54:07.785Z,90.35
2016-10-13T06:55:07.404Z,90.76
2016-10-13T06:56:08.175Z,90.71
2016-10-13T06:57:07.739Z,90.81
2016-10-13T06:58:07.439Z,91.14
2016-10-13T06:59:08.060Z,91.03
2016-10-13T07:00:07.739Z,91.66
2016-10-13T07:01:07.322Z,91.11
2016-10-13T07:02:08.055Z,91.30
2016-10-13T07:03:07.794Z,91.06
2016-10-13T07:04:08.376Z,91.10
2016-10-13T07:05:07.987Z,90.35
2016-10-13T07:06:07.642Z,89.74
2016-10-13T07:07:08.353Z,90.50
2016-10-13T07:08:07.979Z,90.96
2016-10-13T07:09:07.567Z,90.01
2016-10-13T07:10:08.255Z,90.14
2016-10-13T07:11:07.926Z,90.46
2016-10-13T07:12:08.031Z,90.47
2016-10-13T07:13:08.346Z,90.79
2016-10-13T07:14:07.971Z,90.90
2016-10-13T07:15:07.563Z,90.92
2016-10-13T07:16:08.254Z,91.07
2016-10-13T07:17:07.988Z,91.42
2016-10-13T07:18:07.742Z,91.25
2016-10-13T07:19:08.360Z,91.26
2016-10-13T07:20:08.048Z,90.99
2016-10-13T07:21:07.667Z,90.84
2016-10-13T07:22:08.382Z,91.24
2016-10-13T07:23:08.032Z,91.18
2016-10-13T07:24:07.596Z,90.83
2016-10-13T07:25:08.331Z,90.79
2016-10-13T07:26:07.952Z,90.09
2016-10-13T07:27:07.613Z,90.49
2016-10-13T07:28:08.284Z,90.72
2016-10-13T07:29:07.932Z,91.01
2016-10-13T07:30:07.647Z,90.65
2016-10-13T07:31:08.291Z,90.30
2016-10-13T07:32:07.906Z,90.77
2016-10-13T07:33:07.644Z,90.35
2016-10-13T07:34:08.308Z,90.55
2016-10-13T07:35:07.925Z,90.51
2016-10-13T07:36:07.583Z,90.15
2016-10-13T07:37:08.320Z,90.43
2016-10-13T07:38:07.982Z,89.64
2016-10-13T07:39:07.529Z,89.98
2016-10-13T07:40:08.243Z,90.31
2016-10-13T07:41:07.849Z,90.33
2016-10-13T07:42:07.542Z,89.81
2016-10-13T07:43:08.256Z,89.85
2016-10-13T07:44:07.887Z,89.53
2016-10-13T07:45:07.497Z,89.89
2016-10-13T07:46:08.183Z,89.84
2016-10-13T07:47:07.858Z,89.23
2016-10-13T07:48:07.513Z,89.05
2016-10-13T07:49:08.132Z,88.89
2016-10-13T07:50:07.822Z,89.52
2016-10-13T07:51:07.418Z,90.28
2016-10-13T07:52:08.153Z,90.05
2016-10-13T07:53:07.846Z,90.32
2016-10-13T07:54:07.398Z,89.51
2016-10-13T07:55:08.052Z,89.41
2016-10-13T07:56:07.673Z,89.42
2016-10-13T07:57:07.337Z,89.32
2016-10-13T07:58:08.115Z,88.79
2016-10-13T07:59:07.700Z,88.79
2016-10-13T08:00:07.369Z,88.67
2016-10-13T08:01:08.094Z,89.28
2016-10-13T08:02:07.724Z,89.05
2016-10-13T08:03:07.396Z,89.07
2016-10-13T08:04:08.062Z,89.45
2016-10-13T08:05:07.715Z,89.52
2016-10-13T08:06:07.445Z,89.89
2016-10-13T08:07:08.115Z,89.89
2016-10-13T08:08:07.767Z,90.35
2016-10-13T08:09:07.371Z,90.53
2016-10-13T08:10:08.145Z,90.21
2016-10-13T08:11:07.691Z,89.66
2016-10-13T08:12:07.380Z,90.33
2016-10-13T08:13:08.153Z,90.15
2016-10-13T08:14:07.783Z,88.52
2016-10-13T08:15:07.396Z,89.59
2016-10-13T08:16:08.021Z,89.19
2016-10-13T08:17:07.779Z,89.03
2016-10-13T08:18:07.522Z,88.27
2016-10-13T08:19:08.216Z,87.33
2016-10-13T08:20:07.828Z,87.95
2016-10-13T08:21:07.436Z,87.10
2016-10-13T08:22:08.192Z,86.90
2016-10-13T08:23:07.822Z,87.24
2016-10-13T08:24:07.414Z,87.50
2016-10-13T08:25:08.070Z,87.97
2016-10-13T08:26:07.739Z,88.26
2016-10-13T08:27:07.422Z,88.72
2016-10-13T08:28:08.097Z,88.11
2016-10-13T08:29:07.702Z,88.21
2016-10-13T08:30:07.381Z,87.52
2016-10-13T08:31:08.048Z,88.25
2016-10-13T08:32:07.829Z,88.33
2016-10-13T08:33:08.411Z,89.67
2016-10-13T08:34:08.011Z,89.22
2016-10-13T08:35:07.647Z,89.37
2016-10-13T08:36:08.338Z,89.17
2016-10-13T08:37:07.981Z,89.12
2016-10-13T08:38:07.711Z,88.76
2016-10-13T08:39:08.317Z,87.10
2016-10-13T08:40:07.937Z,89.56
2016-10-13T08:41:07.572Z,87.67
2016-10-13T08:42:08.260Z,87.16
2016-10-13T08:43:08.011Z,85.56
2016-10-13T08:44:07.550Z,86.53
2016-10-13T08:45:08.260Z,86.51
2016-10-13T08:46:07.936Z,86.56
2016-10-13T08:47:07.556Z,86.96
2016-10-13T08:48:08.301Z,86.09
2016-10-13T08:49:07.867Z,84.80
2016-10-13T08:50:07.483Z,85.01
2016-10-13T08:51:08.292Z,86.00
2016-10-13T08:52:07.909Z,85.88
2016-10-13T08:53:07.482Z,85.75
2016-10-13T08:54:08.164Z,84.89
2016-10-13T08:55:07.818Z,84.69
2016-10-13T08:56:07.468Z,84.68
2016-10-13T08:57:08.142Z,84.36
2016-10-13T08:58:07.788Z,84.24
2016-10-13T08:59:07.381Z,84.76
2016-10-13T09:00:08.062Z,84.70
2016-10-13T09:01:07.727Z,83.35
2016-10-13T09:02:08.380Z,83.13
2016-10-13T09:03:08.069Z,83.88
2016-10-13T09:04:07.633Z,83.30
2016-10-13T09:05:08.502Z,83.35
2016-10-13T09:06:07.990Z,84.17
2016-10-13T09:07:07.662Z,84.58
2016-10-13T09:08:08.372Z,83.99
2016-10-13T09:09:07.971Z,84.20
2016-10-13T09:10:07.595Z,84.13
2016-10-13T09:11:08.286Z,83.54
2016-10-13T09:12:07.927Z,83.11
2016-10-13T09:13:07.612Z,83.14
2016-10-13T09:14:08.293Z,82.92
2016-10-13T09:15:07.992Z,82.04
2016-10-13T09:16:07.631Z,81.85
2016-10-13T09:17:08.401Z,82.77
2016-10-13T09:18:10.862Z,83.01
2016-10-13T09:19:07.742Z,82.74
2016-10-13T09:20:07.420Z,82.06
2016-10-13T09:21:08.074Z,82.03
2016-10-13T09:22:07.794Z,84.03
2016-10-13T09:23:07.380Z,83.31
2016-10-13T09:24:08.113Z,82.42
2016-10-13T09:25:07.703Z,83.61
2016-10-13T09:26:08.352Z,82.91
2016-10-13T09:27:08.028Z,82.44
2016-10-13T09:28:13.165Z,82.02
2016-10-13T09:29:08.327Z,81.90
2016-10-13T09:30:07.940Z,83.26
2016-10-13T09:31:07.567Z,82.71
2016-10-13T09:32:08.265Z,81.70
2016-10-13T09:33:07.945Z,81.29
2016-10-13T09:34:07.562Z,82.00
2016-10-13T09:35:08.235Z,80.61
2016-10-13T09:36:07.869Z,80.43
2016-10-13T09:37:07.578Z,81.17
2016-10-13T09:38:08.303Z,80.14
2016-10-13T09:39:07.882Z,80.55
2016-10-13T09:40:07.444Z,80.64
2016-10-13T09:41:08.177Z,79.78
2016-10-13T09:42:07.806Z,79.94
2016-10-13T09:43:07.441Z,80.07
2016-10-13T09:44:08.175Z,79.40
2016-10-13T09:45:07.819Z,79.39
2016-10-13T09:46:07.443Z,78.69
2016-10-13T09:47:08.091Z,79.32
2016-10-13T09:48:07.771Z,79.26
2016-10-13T09:49:07.462Z,79.47
2016-10-13T09:50:08.069Z,79.00
2016-10-13T09:51:07.703Z,78.63
2016-10-13T09:52:07.555Z,79.15
2016-10-13T09:53:08.070Z,79.53
2016-10-13T09:54:07.707Z,79.88
2016-10-13T09:55:08.375Z,80.34
2016-10-13T09:56:08.063Z,79.87
2016-10-13T09:57:07.683Z,79.16
2016-10-13T09:58:08.361Z,79.53
2016-10-13T09:59:08.001Z,79.89
2016-10-13T10:00:07.581Z,79.86
2016-10-13T10:01:08.352Z,78.97
2016-10-13T10:02:08.010Z,79.22
2016-10-13T10:03:07.627Z,78.77
2016-10-13T10:04:08.370Z,78.67
2016-10-13T10:05:08.001Z,78.29
2016-10-13T10:06:07.758Z,78.01
2016-10-13T10:07:07.544Z,78.54
2016-10-13T10:08:08.039Z,77.05
2016-10-13T10:09:07.768Z,77.54
2016-10-13T10:10:07.435Z,76.95
2016-10-13T10:11:08.130Z,76.21
2016-10-13T10:12:07.682Z,78.32
2016-10-13T10:13:07.395Z,78.14
2016-10-13T10:14:08.145Z,78.04
2016-10-13T10:15:07.700Z,78.64
2016-10-13T10:16:07.362Z,78.62
2016-10-13T10:17:08.181Z,78.48
2016-10-13T10:18:07.849Z,78.22
2016-10-13T10:19:07.541Z,77.87
2016-10-13T10:20:08.230Z,77.39
2016-10-13T10:21:07.887Z,77.69
2016-10-13T10:22:07.564Z,77.71
2016-10-13T10:23:08.293Z,79.15
2016-10-13T10:24:07.925Z,78.51
2016-10-13T10:25:07.495Z,77.91
2016-10-13T10:26:08.229Z,78.87
2016-10-13T10:27:07.874Z,78.93
2016-10-13T10:28:07.503Z,78.96
2016-10-13T10:29:08.278Z,78.95
2016-10-13T10:30:07.833Z,79.13
2016-10-13T10:31:07.483Z,78.31
2016-10-13T10:32:08.204Z,78.78
2016-10-13T10:33:07.905Z,78.52
2016-10-13T10:34:07.599Z,78.33
2016-10-13T10:35:08.213Z,79.28
2016-10-13T10:36:07.883Z,77.98
2016-10-13T10:37:07.507Z,78.66
2016-10-13T10:38:08.146Z,76.95
2016-10-13T10:39:07.824Z,77.64
2016-10-13T10:40:07.460Z,77.41
2016-10-13T10:41:08.182Z,76.76
2016-10-13T10:42:07.859Z,76.07
2016-10-13T10:43:07.415Z,77.66
2016-10-13T10:44:08.165Z,77.56
2016-10-13T10:45:07.696Z,76.08
2016-10-13T10:46:07.334Z,76.79
2016-10-13T10:47:08.065Z,78.14
2016-10-13T10:48:07.726Z,78.60
2016-10-13T10:49:07.426Z,79.01
2016-10-13T10:50:08.089Z,78.75
2016-10-13T10:51:07.686Z,77.77
2016-10-13T10:52:07.434Z,77.81
2016-10-13T10:53:08.059Z,78.37
2016-10-13T10:54:07.777Z,78.11
2016-10-13T10:55:07.394Z,78.63
2016-10-13T10:56:08.026Z,77.69
2016-10-13T10:57:07.680Z,77.65
2016-10-13T10:58:07.359Z,77.23
2016-10-13T10:59:08.244Z,76.84
2016-10-13T11:00:07.750Z,76.87
2016-10-13T11:01:07.406Z,76.53
2016-10-13T11:02:08.045Z,76.37
2016-10-13T11:03:07.696Z,76.60
2016-10-13T11:04:08.413Z,76.40
2016-10-13T11:05:08.014Z,77.51
2016-10-13T11:06:07.625Z,78.97
2016-10-13T11:07:08.300Z,79.18
2016-10-13T11:08:07.963Z,78.78
2016-10-13T11:09:07.625Z,77.12
2016-10-13T11:10:08.277Z,76.76
2016-10-13T11:11:07.957Z,76.96
2016-10-13T11:12:07.563Z,75.40
2016-10-13T11:13:08.205Z,77.04
2016-10-13T11:14:07.885Z,74.92
2016-10-13T11:15:07.528Z,76.21
2016-10-13T11:16:08.290Z,75.84
2016-10-13T11:17:08.768Z,75.51
2016-10-13T11:18:07.790Z,74.26
2016-10-13T11:19:07.438Z,73.42
2016-10-13T11:20:08.152Z,74.19
2016-10-13T11:21:07.767Z,74.23
2016-10-13T11:22:07.488Z,74.17
2016-10-13T11:23:08.104Z,72.57
2016-10-13T11:24:07.786Z,73.94
2016-10-13T11:25:07.371Z,73.47
2016-10-13T11:26:08.042Z,72.77
2016-10-13T11:27:07.706Z,73.14
2016-10-13T11:28:08.368Z,72.55
2016-10-13T11:29:08.081Z,72.80
2016-10-13T11:30:07.635Z,74.51
2016-10-13T11:31:08.286Z,75.75
2016-10-13T11:32:07.992Z,74.98
2016-10-13T11:33:07.643Z,75.57
2016-10-13T11:34:08.366Z,75.32
2016-10-13T11:35:07.938Z,75.36
2016-10-13T11:36:07.649Z,74.68
2016-10-13T11:37:08.297Z,74.12
2016-10-13T11:38:07.882Z,72.99
2016-10-13T11:39:07.627Z,71.91
2016-10-13T11:40:08.238Z,72.61
2016-10-13T11:41:07.874Z,72.59
2016-10-13T11:42:07.556Z,73.04
2016-10-13T11:43:08.265Z,72.84
2016-10-13T11:44:07.963Z,72.79
2016-10-13T11:45:07.553Z,73.22
2016-10-13T11:46:08.176Z,72.49
2016-10-13T11:47:07.847Z,73.33
2016-10-13T11:48:07.494Z,73.73
2016-10-13T11:49:08.257Z,72.24
2016-10-13T11:50:07.807Z,70.88
2016-10-13T11:51:07.444Z,71.08
2016-10-13T11:52:08.175Z,71.48
2016-10-13T11:53:07.797Z,71.48
2016-10-13T11:54:07.462Z,70.52
2016-10-13T11:55:08.049Z,70.52
2016-10-13T11:56:07.715Z,70.69
2016-10-13T11:57:07.340Z,71.13
2016-10-13T11:58:08.114Z,69.94
2016-10-13T11:59:07.701Z,70.96
2016-10-13T12:00:08.375Z,70.65
2016-10-13T12:01:08.174Z,71.62
2016-10-13T12:02:07.837Z,69.85
2016-10-13T12:03:07.480Z,69.96
2016-10-13T12:04:08.217Z,70.05
2016-10-13T12:05:07.735Z,69.48
2016-10-13T12:06:07.363Z,70.57
2016-10-13T12:07:08.179Z,70.36
2016-10-13T12:08:07.757Z,70.67
2016-10-13T12:09:07.433Z,70.29
2016-10-13T12:10:08.097Z,70.17
2016-10-13T12:11:07.661Z,70.98
2016-10-13T12:12:07.430Z,71.12
2016-10-13T12:13:08.073Z,71.00
2016-10-13T12:14:07.775Z,70.01
2016-10-13T12:15:07.339Z,70.40
2016-10-13T12:16:08.047Z,71.78
2016-10-13T12:17:07.665Z,71.43
2016-10-13T12:18:07.491Z,71.23
2016-10-13T12:19:08.186Z,70.42
2016-10-13T12:20:07.830Z,70.49
2016-10-13T12:21:07.416Z,71.73
2016-10-13T12:22:08.132Z,71.66
2016-10-13T12:23:07.682Z,72.48
2016-10-13T12:24:07.407Z,71.16
2016-10-13T12:25:08.095Z,71.38
2016-10-13T12:26:07.719Z,72.13
2016-10-13T12:27:08.365Z,71.17
2016-10-13T12:28:07.993Z,71.73
2016-10-13T12:29:07.677Z,71.65
2016-10-13T12:30:08.367Z,71.26
2016-10-13T12:31:08.370Z,71.08
2016-10-13T12:32:07.884Z,72.38
2016-10-13T12:33:07.512Z,70.57
2016-10-13T12:34:08.251Z,71.86
2016-10-13T12:35:07.903Z,70.59
2016-10-13T12:36:07.540Z,71.58
2016-10-13T12:37:08.284Z,71.11
2016-10-13T12:38:07.825Z,70.96
2016-10-13T12:39:07.564Z,71.68
2016-10-13T12:40:08.237Z,69.89
2016-10-13T12:41:07.911Z,69.25
2016-10-13T12:42:07.490Z,69.52
2016-10-13T12:43:08.174Z,69.57
2016-10-13T12:44:07.845Z,70.10
2016-10-13T12:45:07.434Z,70.07
2016-10-13T12:46:08.146Z,70.16
2016-10-13T12:47:07.756Z,70.25
2016-10-13T12:48:07.468Z,70.78
2016-10-13T12:49:08.186Z,70.94
2016-10-13T12:50:07.794Z,70.51
2016-10-13T12:51:07.477Z,71.38
2016-10-13T12:52:08.201Z,70.21